Time;durP1;ratioP1;P1;durP2;ratioP2;P2;SDS_P1;SDS_P2;PMS_P1;PMS_P2;Temp;Humidity;BMP_temperature;BMP_pressure;BME280_temperature;BME280_humidity;BME280_pressure;Samples;Min_cycle;Max_cycle;Signal;HPM_P1;HPM_P2
2021/09/27 00:01:52;;;;;;;17.53;11.13;;;;;;;;;;5069985;28;20029;-66
2021/09/27 00:04:17;;;;;;;20.60;11.77;;;;;;;;;;5069364;28;20267;-66
2021/09/27 00:06:42;;;;;;;23.88;11.93;;;;;;;;;;5065888;28;20310;-66
2021/09/27 00:09:07;;;;;;;16.70;11.10;;;;;;;;;;5069919;28;20067;-66
2021/09/27 00:11:33;;;;;;;19.17;11.70;;;;;;;;;;5070495;28;20263;-66
2021/09/27 00:14:00;;;;;;;15.63;10.55;;;;;;;;;;5068428;28;20012;-66
2021/09/27 00:16:26;;;;;;;18.05;11.07;;;;;;;;;;5058770;28;20019;-66
2021/09/27 00:18:52;;;;;;;21.35;12.00;;;;;;;;;;5070276;28;20024;-66
2021/09/27 00:21:22;;;;;;;21.55;10.93;;;;;;;;;;5069691;28;20034;-65
2021/09/27 00:23:47;;;;;;;18.65;11.57;;;;;;;;;;5070032;28;20028;-66
2021/09/27 00:26:12;;;;;;;19.60;11.45;;;;;;;;;;5070416;28;20045;-66
2021/09/27 00:28:38;;;;;;;20.60;12.77;;;;;;;;;;5070341;28;20131;-66
2021/09/27 00:31:03;;;;;;;22.60;11.57;;;;;;;;;;5070134;28;20017;-66
2021/09/27 00:33:28;;;;;;;18.85;11.60;;;;;;;;;;5069513;28;20267;-65
2021/09/27 00:35:54;;;;;;;18.13;10.77;;;;;;;;;;5069857;28;20039;-66
2021/09/27 00:38:19;;;;;;;22.50;12.35;;;;;;;;;;5070163;28;20412;-66
2021/09/27 00:40:47;;;;;;;20.50;12.13;;;;;;;;;;5070112;28;20111;-65
2021/09/27 00:43:13;;;;;;;20.08;11.95;;;;;;;;;;5071070;28;20477;-66
2021/09/27 00:45:41;;;;;;;20.45;12.00;;;;;;;;;;5074351;28;20042;-66
2021/09/27 00:48:06;;;;;;;19.27;11.43;;;;;;;;;;5073182;28;20048;-66
2021/09/27 00:50:34;;;;;;;22.20;11.68;;;;;;;;;;5072276;28;20055;-66
2021/09/27 00:53:01;;;;;;;17.13;11.20;;;;;;;;;;5073329;28;20021;-65
2021/09/27 00:55:26;;;;;;;22.23;12.02;;;;;;;;;;5073683;28;20020;-66
2021/09/27 00:57:54;;;;;;;20.13;11.63;;;;;;;;;;5073655;28;20020;-65
2021/09/27 01:00:20;;;;;;;22.63;10.77;;;;;;;;;;5073832;28;20363;-65
2021/09/27 01:02:45;;;;;;;15.60;11.07;;;;;;;;;;5072684;28;20028;-66
2021/09/27 01:05:12;;;;;;;19.25;11.52;;;;;;;;;;5073359;28;20027;-66
2021/09/27 01:07:49;;;;;;;21.15;11.32;;;;;;;;;;5073625;28;20017;-65
2021/09/27 01:10:14;;;;;;;26.88;11.68;;;;;;;;;;5073571;28;20033;-65
2021/09/27 01:12:58;;;;;;;21.23;11.75;;;;;;;;;;5073166;28;20100;-66
2021/09/27 01:15:34;;;;;;;26.90;11.07;;;;;;;;;;5073571;28;20078;-65
2021/09/27 01:18:18;;;;;;;18.75;11.25;;;;;;;;;;5072957;28;20035;-65
2021/09/27 01:20:55;;;;;;;20.98;10.98;;;;;;;;;;5073644;28;20017;-66
2021/09/27 01:23:27;;;;;;;18.40;11.93;;;;;;;;;;5072607;28;20029;-66
2021/09/27 01:26:10;;;;;;;19.83;11.32;;;;;;;;;;5072948;28;20046;-65
2021/09/27 01:29:01;;;;;;;18.10;11.77;;;;;;;;;;5073079;28;20028;-67
2021/09/27 01:31:45;;;;;;;17.48;10.95;;;;;;;;;;5073574;28;20021;-67
2021/09/27 01:34:15;;;;;;;23.50;11.68;;;;;;;;;;5057898;28;20643;-67
2021/09/27 01:36:43;;;;;;;17.80;10.75;;;;;;;;;;5073155;28;20037;-66
2021/09/27 01:39:11;;;;;;;17.58;10.77;;;;;;;;;;5072630;28;20085;-66
2021/09/27 01:41:41;;;;;;;20.92;10.73;;;;;;;;;;5072805;28;20107;-67
2021/09/27 01:44:23;;;;;;;17.15;11.13;;;;;;;;;;5056421;28;20495;-66
2021/09/27 01:46:57;;;;;;;21.88;12.13;;;;;;;;;;5072974;28;20481;-67
2021/09/27 01:49:22;;;;;;;24.10;12.18;;;;;;;;;;5071217;28;20046;-66
2021/09/27 01:51:51;;;;;;;19.10;10.40;;;;;;;;;;5072208;28;20020;-67
2021/09/27 01:54:21;;;;;;;19.38;11.02;;;;;;;;;;5072122;28;20029;-66
2021/09/27 01:56:51;;;;;;;19.35;10.70;;;;;;;;;;5072225;28;20029;-67
2021/09/27 01:59:28;;;;;;;20.92;12.07;;;;;;;;;;5072594;28;20077;-66
2021/09/27 02:02:00;;;;;;;18.92;10.93;;;;;;;;;;5072420;28;20155;-66
2021/09/27 02:04:44;;;;;;;21.63;10.40;;;;;;;;;;5072324;28;20024;-66
2021/09/27 02:07:10;;;;;;;22.80;10.82;;;;;;;;;;5071705;28;20021;-66
2021/09/27 02:09:38;;;;;;;20.13;12.15;;;;;;;;;;5072361;28;20032;-67
2021/09/27 02:12:06;;;;;;;19.08;9.70;;;;;;;;;;5071937;28;20048;-66
2021/09/27 02:14:40;;;;;;;19.73;11.60;;;;;;;;;;5072518;28;20051;-65
2021/09/27 02:17:05;;;;;;;19.70;10.50;;;;;;;;;;5072389;28;20024;-65
2021/09/27 02:19:49;;;;;;;18.10;10.27;;;;;;;;;;5072538;28;20036;-65
2021/09/27 02:22:19;;;;;;;21.73;10.65;;;;;;;;;;5071436;28;20040;-66
2021/09/27 02:24:44;;;;;;;;;;;;;;;;;;5072863;28;20081;-66
2021/09/27 02:27:09;;;;;;;24.08;10.75;;;;;;;;;;5072255;28;19908;-65
2021/09/27 02:29:36;;;;;;;22.67;9.48;;;;;;;;;;5072027;28;20507;-65
2021/09/27 02:32:05;;;;;;;14.93;8.88;;;;;;;;;;5071723;28;20105;-65
2021/09/27 02:34:59;;;;;;;16.83;10.65;;;;;;;;;;5072065;28;20058;-64
2021/09/27 02:37:27;;;;;;;20.90;10.63;;;;;;;;;;5014984;28;20139;-65
2021/09/27 02:40:06;;;;;;;21.77;10.75;;;;;;;;;;5071553;28;20512;-65
2021/09/27 02:42:36;;;;;;;19.30;11.57;;;;;;;;;;5070992;28;20109;-65
2021/09/27 02:45:01;;;;;;;;;;;;;;;;;;5072484;28;20040;-65
2021/09/27 02:47:31;;;;;;;20.70;10.30;;;;;;;;;;5071679;28;19904;-65
2021/09/27 02:49:58;;;;;;;20.00;10.43;;;;;;;;;;5070355;28;20028;-65
2021/09/27 02:52:24;;;;;;;22.15;10.23;;;;;;;;;;5071267;28;20465;-66
2021/09/27 02:54:51;;;;;;;23.30;9.65;;;;;;;;;;5071130;28;20036;-66
2021/09/27 02:57:28;;;;;;;18.60;10.57;;;;;;;;;;5071478;28;20027;-65
2021/09/27 02:59:59;;;;;;;17.50;9.52;;;;;;;;;;5064143;28;20024;-65
2021/09/27 03:02:44;;;;;;;22.80;10.35;;;;;;;;;;5071387;28;20056;-65
2021/09/27 03:05:09;;;;;;;16.80;9.95;;;;;;;;;;5071111;28;20020;-65
2021/09/27 03:07:53;;;;;;;16.37;8.33;;;;;;;;;;5070882;28;20538;-65
2021/09/27 03:10:21;;;;;;;18.50;10.13;;;;;;;;;;5070816;28;20287;-66
2021/09/27 03:13:03;;;;;;;19.65;9.88;;;;;;;;;;5070561;28;20107;-66
2021/09/27 03:15:31;;;;;;;16.17;10.75;;;;;;;;;;5071247;28;20108;-65
2021/09/27 03:18:14;;;;;;;15.52;9.00;;;;;;;;;;5070904;28;20023;-65
2021/09/27 03:20:52;;;;;;;16.80;10.60;;;;;;;;;;5051600;28;20551;-65
2021/09/27 03:23:23;;;;;;;18.90;10.20;;;;;;;;;;5068275;28;20035;-65
2021/09/27 03:26:10;;;;;;;19.60;10.45;;;;;;;;;;5063075;28;20508;-65
2021/09/27 03:28:35;;;;;;;19.83;10.40;;;;;;;;;;5067728;28;20028;-65
2021/09/27 03:31:06;;;;;;;20.90;10.60;;;;;;;;;;5070858;28;20091;-65
2021/09/27 03:33:46;;;;;;;18.00;10.45;;;;;;;;;;5069573;28;20350;-65
2021/09/27 03:36:17;;;;;;;16.50;10.25;;;;;;;;;;5071162;28;20381;-65
2021/09/27 03:38:43;;;;;;;17.63;10.43;;;;;;;;;;5070352;28;20036;-65
2021/09/27 03:41:12;;;;;;;21.48;8.65;;;;;;;;;;5070726;28;20566;-65
2021/09/27 03:43:43;;;;;;;18.13;8.40;;;;;;;;;;5069561;28;20032;-65
2021/09/27 03:46:22;;;;;;;12.93;6.78;;;;;;;;;;5070419;28;20020;-67
2021/09/27 03:48:55;;;;;;;20.55;10.00;;;;;;;;;;5069920;28;20085;-66
2021/09/27 03:51:25;;;;;;;18.20;9.68;;;;;;;;;;5070684;28;20029;-66
2021/09/27 03:53:53;;;;;;;14.32;8.50;;;;;;;;;;5069161;28;20119;-66
2021/09/27 03:56:21;;;;;;;18.67;8.85;;;;;;;;;;5069737;28;20051;-66
2021/09/27 03:59:04;;;;;;;15.43;9.13;;;;;;;;;;5069849;28;20016;-64
2021/09/27 04:01:34;;;;;;;17.75;8.50;;;;;;;;;;5059626;28;20104;-66
2021/09/27 04:04:01;;;;;;;19.15;9.32;;;;;;;;;;5069895;28;20039;-65
2021/09/27 04:06:36;;;;;;;18.73;8.23;;;;;;;;;;5070515;28;20384;-65
2021/09/27 04:09:20;;;;;;;16.73;9.25;;;;;;;;;;5070290;28;20468;-64
2021/09/27 04:11:45;;;;;;;21.77;9.30;;;;;;;;;;5069895;28;20037;-65
2021/09/27 04:14:22;;;;;;;13.60;8.40;;;;;;;;;;5069750;28;20087;-65
2021/09/27 04:16:53;;;;;;;14.13;7.22;;;;;;;;;;5070097;28;20381;-64
2021/09/27 04:19:37;;;;;;;16.75;9.02;;;;;;;;;;5069725;28;20028;-65
2021/09/27 04:22:08;;;;;;;16.77;9.43;;;;;;;;;;5069945;28;20020;-66
2021/09/27 04:24:33;;;;;;;17.27;9.00;;;;;;;;;;5070286;28;20020;-65
2021/09/27 04:27:09;;;;;;;16.38;9.13;;;;;;;;;;5070108;28;20350;-64
2021/09/27 04:29:39;;;;;;;16.55;7.43;;;;;;;;;;5069346;28;20070;-64
2021/09/27 04:32:04;;;;;;;23.88;9.43;;;;;;;;;;5070051;28;20019;-64
2021/09/27 04:34:38;;;;;;;19.33;9.70;;;;;;;;;;5070363;28;20029;-65
2021/09/27 04:37:03;;;;;;;21.27;9.82;;;;;;;;;;5069334;28;20501;-65
2021/09/27 04:39:32;;;;;;;18.63;9.98;;;;;;;;;;5069933;28;20036;-65
2021/09/27 04:42:16;;;;;;;21.92;10.02;;;;;;;;;;5067639;28;20110;-65
2021/09/27 04:44:44;;;;;;;29.38;9.63;;;;;;;;;;5064266;28;20035;-65
2021/09/27 04:47:24;;;;;;;14.90;8.60;;;;;;;;;;5070118;28;20043;-65
2021/09/27 04:50:03;;;;;;;13.88;8.35;;;;;;;;;;5070045;28;20109;-65
2021/09/27 04:52:31;;;;;;;11.25;5.80;;;;;;;;;;5069176;28;20020;-66
2021/09/27 04:55:02;;;;;;;14.68;7.78;;;;;;;;;;5066111;28;20013;-64
2021/09/27 04:57:28;;;;;;;;;;;;;;;;;;5067006;28;20017;-66
2021/09/27 05:00:06;;;;;;;13.60;8.65;;;;;;;;;;5070001;28;20285;-67
2021/09/27 05:02:38;;;;;;;16.67;8.73;;;;;;;;;;5068977;28;20021;-66
2021/09/27 05:05:06;;;;;;;16.80;9.27;;;;;;;;;;5069430;28;20021;-66
2021/09/27 05:07:31;;;;;;;16.85;9.40;;;;;;;;;;5064713;28;20372;-65
2021/09/27 05:10:06;;;;;;;16.27;8.03;;;;;;;;;;5058167;28;20035;-65
2021/09/27 05:12:40;;;;;;;14.75;8.50;;;;;;;;;;5064859;28;20331;-65
2021/09/27 05:15:08;;;;;;;16.05;8.77;;;;;;;;;;5067576;28;20024;-66
2021/09/27 05:17:36;;;;;;;16.13;9.20;;;;;;;;;;5067838;28;20016;-67
2021/09/27 05:20:16;;;;;;;16.13;9.02;;;;;;;;;;5067449;28;20135;-66
2021/09/27 05:22:59;;;;;;;15.93;8.60;;;;;;;;;;5065076;28;20556;-66
2021/09/27 05:25:43;;;;;;;19.17;7.03;;;;;;;;;;5067130;28;20024;-66
2021/09/27 05:28:27;;;;;;;13.95;8.48;;;;;;;;;;5064876;28;20104;-65
2021/09/27 05:31:11;;;;;;;16.55;9.05;;;;;;;;;;5056500;28;20067;-67
2021/09/27 05:34:11;;;;;;;16.23;9.35;;;;;;;;;;5064415;28;20032;-67
2021/09/27 05:36:55;;;;;;;16.80;9.60;;;;;;;;;;5027343;28;20030;-67
2021/09/27 05:39:39;;;;;;;14.02;7.88;;;;;;;;;;5061083;28;20040;-67
2021/09/27 05:42:13;;;;;;;11.88;6.68;;;;;;;;;;5059279;28;20070;-65
2021/09/27 05:44:52;;;;;;;20.85;7.20;;;;;;;;;;5070472;28;20476;-64
2021/09/27 05:47:17;;;;;;;14.63;7.13;;;;;;;;;;5067746;28;20070;-67
2021/09/27 05:49:49;;;;;;;15.88;7.13;;;;;;;;;;5067690;28;20055;-66
2021/09/27 05:52:38;;;;;;;12.45;8.52;;;;;;;;;;5069824;28;20025;-66
2021/09/27 05:55:03;;;;;;;13.85;7.03;;;;;;;;;;5070135;28;20020;-67
2021/09/27 05:57:31;;;;;;;16.23;8.40;;;;;;;;;;5066117;28;20491;-66
2021/09/27 06:00:07;;;;;;;13.73;7.43;;;;;;;;;;5064889;28;20545;-66
2021/09/27 06:02:56;;;;;;;14.90;7.70;;;;;;;;;;5056895;28;20123;-66
2021/09/27 06:05:39;;;;;;;14.07;8.75;;;;;;;;;;5067729;28;20027;-67
2021/09/27 06:08:10;;;;;;;13.13;7.50;;;;;;;;;;5064471;28;20021;-66
2021/09/27 06:10:51;;;;;;;15.40;9.10;;;;;;;;;;5064009;28;20021;-66
2021/09/27 06:13:16;;;;;;;12.88;7.53;;;;;;;;;;5060453;28;20024;-65
2021/09/27 06:15:50;;;;;;;18.02;8.70;;;;;;;;;;5064033;28;20388;-67
2021/09/27 06:18:39;;;;;;;14.70;8.57;;;;;;;;;;5067736;28;20455;-67
2021/09/27 06:21:23;;;;;;;21.23;8.90;;;;;;;;;;5071934;28;20055;-66
2021/09/27 06:23:58;;;;;;;12.73;5.32;;;;;;;;;;5071751;28;20029;-65
2021/09/27 06:26:24;;;;;;;11.48;6.97;;;;;;;;;;5072170;28;20373;-65
2021/09/27 06:29:02;;;;;;;18.58;6.38;;;;;;;;;;5071989;28;20114;-66
2021/09/27 06:31:37;;;;;;;15.23;8.15;;;;;;;;;;5071508;28;20013;-65
2021/09/27 06:34:07;;;;;;;16.42;7.95;;;;;;;;;;5070732;28;20025;-65
2021/09/27 06:36:33;;;;;;;14.45;7.80;;;;;;;;;;5066914;28;20016;-65
2021/09/27 06:39:00;;;;;;;13.52;8.05;;;;;;;;;;5071637;28;20362;-65
2021/09/27 06:41:26;;;;;;;11.93;6.78;;;;;;;;;;5070834;28;20028;-65
2021/09/27 06:43:52;;;;;;;17.05;7.00;;;;;;;;;;5069994;28;20452;-65
2021/09/27 06:46:19;;;;;;;17.48;7.70;;;;;;;;;;5071704;28;20052;-65
2021/09/27 06:48:45;;;;;;;12.73;7.53;;;;;;;;;;5071493;28;20052;-65
2021/09/27 06:51:10;;;;;;;10.45;6.60;;;;;;;;;;5070121;28;20036;-65
2021/09/27 06:53:35;;;;;;;12.10;5.93;;;;;;;;;;5070077;28;20033;-65
2021/09/27 06:56:01;;;;;;;8.93;4.53;;;;;;;;;;5070425;28;20282;-66
2021/09/27 06:58:27;;;;;;;18.63;6.45;;;;;;;;;;5064644;28;20060;-66
2021/09/27 07:00:55;;;;;;;10.52;6.45;;;;;;;;;;5069850;28;20070;-66
2021/09/27 07:03:20;;;;;;;10.27;6.93;;;;;;;;;;5059856;28;20074;-67
2021/09/27 07:05:46;;;;;;;13.88;7.13;;;;;;;;;;5071321;28;20032;-65
2021/09/27 07:08:11;;;;;;;10.93;7.10;;;;;;;;;;5070615;28;20020;-65
2021/09/27 07:10:36;;;;;;;13.88;7.70;;;;;;;;;;5070829;28;20035;-64
2021/09/27 07:13:02;;;;;;;7.82;4.43;;;;;;;;;;5070026;28;20642;-64
2021/09/27 07:15:27;;;;;;;11.55;7.35;;;;;;;;;;5070300;28;20032;-66
2021/09/27 07:17:53;;;;;;;14.27;6.50;;;;;;;;;;5070114;28;20423;-66
2021/09/27 07:20:19;;;;;;;11.80;6.68;;;;;;;;;;5069797;28;20267;-66
2021/09/27 07:22:44;;;;;;;12.10;6.43;;;;;;;;;;5069921;28;20481;-64
2021/09/27 07:25:10;;;;;;;10.50;6.10;;;;;;;;;;5070158;28;20042;-65
2021/09/27 07:27:36;;;;;;;10.23;6.07;;;;;;;;;;5070324;28;20263;-64
2021/09/27 07:30:01;;;;;;;11.52;7.93;;;;;;;;;;5070150;28;20078;-64
2021/09/27 07:32:26;;;;;;;9.80;6.35;;;;;;;;;;5070023;28;20039;-64
2021/09/27 07:34:51;;;;;;;8.88;5.10;;;;;;;;;;5070304;28;20013;-65
2021/09/27 07:37:17;;;;;;;14.33;7.33;;;;;;;;;;5069891;28;20060;-66
2021/09/27 07:39:42;;;;;;;10.13;5.93;;;;;;;;;;5070511;28;20324;-64
2021/09/27 07:42:08;;;;;;;13.85;6.22;;;;;;;;;;5070168;28;20050;-65
2021/09/27 07:44:33;;;;;;;11.32;6.07;;;;;;;;;;5069972;28;20075;-64
2021/09/27 07:46:58;;;;;;;8.43;4.07;;;;;;;;;;5070308;28;20035;-64
2021/09/27 07:49:23;;;;;;;10.98;5.75;;;;;;;;;;5069743;28;20468;-64
2021/09/27 07:51:49;;;;;;;6.82;4.50;;;;;;;;;;5070571;28;20009;-64
2021/09/27 07:54:14;;;;;;;7.45;4.40;;;;;;;;;;5068135;28;20029;-64
2021/09/27 07:56:39;;;;;;;7.60;5.90;;;;;;;;;;5067724;28;20668;-65
2021/09/27 07:59:06;;;;;;;7.55;4.47;;;;;;;;;;5061069;28;20063;-66
2021/09/27 08:01:32;;;;;;;6.18;3.75;;;;;;;;;;5070344;28;20768;-64
2021/09/27 08:03:57;;;;;;;8.77;5.22;;;;;;;;;;5064371;28;20036;-65
2021/09/27 08:06:23;;;;;;;5.90;3.13;;;;;;;;;;5068947;28;20024;-65
2021/09/27 08:08:48;;;;;;;6.07;3.87;;;;;;;;;;5068724;28;20048;-65
2021/09/27 08:11:13;;;;;;;6.67;4.20;;;;;;;;;;5061064;28;20266;-66
2021/09/27 08:13:38;;;;;;;5.90;4.63;;;;;;;;;;5068852;28;20424;-65
2021/09/27 08:16:04;;;;;;;7.40;3.88;;;;;;;;;;5070079;28;20025;-66
2021/09/27 08:18:29;;;;;;;9.45;5.53;;;;;;;;;;5061795;28;20037;-67
2021/09/27 08:20:56;;;;;;;7.97;3.72;;;;;;;;;;5053794;28;20070;-67
2021/09/27 08:23:22;;;;;;;8.50;4.90;;;;;;;;;;5069476;28;20070;-65
2021/09/27 08:25:48;;;;;;;6.97;4.95;;;;;;;;;;5069727;28;20082;-66
2021/09/27 08:28:14;;;;;;;11.10;5.40;;;;;;;;;;5068902;28;20436;-65
2021/09/27 08:30:44;;;;;;;7.65;4.00;;;;;;;;;;5069737;28;20533;-65
2021/09/27 08:33:10;;;;;;;9.60;3.20;;;;;;;;;;5067090;28;20029;-65
2021/09/27 08:35:36;;;;;;;8.95;3.05;;;;;;;;;;5070098;28;20100;-66
2021/09/27 08:38:03;;;;;;;8.13;4.43;;;;;;;;;;5069173;28;20058;-66
2021/09/27 08:40:47;;;;;;;7.05;3.33;;;;;;;;;;5069756;28;20525;-66
2021/09/27 08:43:32;;;;;;;7.93;4.53;;;;;;;;;;5066439;28;20040;-66
2021/09/27 08:46:05;;;;;;;5.32;3.83;;;;;;;;;;5064840;28;20035;-65
2021/09/27 08:48:36;;;;;;;8.07;3.55;;;;;;;;;;5064454;28;20021;-65
2021/09/27 08:51:02;;;;;;;7.28;3.20;;;;;;;;;;5069325;28;20376;-66
2021/09/27 08:53:46;;;;;;;4.50;3.88;;;;;;;;;;5067669;28;20025;-66
2021/09/27 08:56:24;;;;;;;4.72;2.67;;;;;;;;;;5059335;28;20009;-66
2021/09/27 08:58:56;;;;;;;4.32;2.38;;;;;;;;;;5069091;28;20071;-67
2021/09/27 09:01:25;;;;;;;2.85;1.83;;;;;;;;;;5067056;28;20012;-67
2021/09/27 09:04:07;;;;;;;8.45;4.05;;;;;;;;;;5069913;28;20024;-65
2021/09/27 09:06:37;;;;;;;3.47;1.60;;;;;;;;;;5073626;28;20207;-66
2021/09/27 09:09:09;;;;;;;10.30;3.70;;;;;;;;;;5073585;28;20027;-66
2021/09/27 09:11:37;;;;;;;8.05;4.35;;;;;;;;;;5070324;28;20527;-66
2021/09/27 09:14:02;;;;;;;6.75;2.63;;;;;;;;;;5064180;28;20719;-66
2021/09/27 09:16:28;;;;;;;9.83;4.73;;;;;;;;;;5070703;28;20123;-65
2021/09/27 09:18:56;;;;;;;7.00;2.78;;;;;;;;;;5073133;28;20267;-67
2021/09/27 09:21:27;;;;;;;8.60;3.97;;;;;;;;;;5068506;28;20480;-66
2021/09/27 09:23:56;;;;;;;6.90;4.00;;;;;;;;;;5072454;28;20085;-65
2021/09/27 09:26:24;;;;;;;10.18;4.55;;;;;;;;;;5072572;28;20016;-65
2021/09/27 09:28:50;;;;;;;5.70;1.67;;;;;;;;;;5071920;28;20029;-67
2021/09/27 09:31:20;;;;;;;3.38;2.70;;;;;;;;;;5072030;28;20713;-66
2021/09/27 09:34:00;;;;;;;5.90;3.10;;;;;;;;;;5070877;28;20095;-66
2021/09/27 09:36:31;;;;;;;9.63;3.60;;;;;;;;;;5065770;28;20110;-66
2021/09/27 09:38:56;;;;;;;5.93;2.65;;;;;;;;;;5073215;28;20024;-65
2021/09/27 09:41:21;;;;;;;4.90;1.98;;;;;;;;;;5061829;28;20032;-66
2021/09/27 09:43:48;;;;;;;7.93;2.70;;;;;;;;;;5063656;28;20146;-67
2021/09/27 09:46:15;;;;;;;9.43;2.92;;;;;;;;;;5067958;28;20043;-66
2021/09/27 09:48:58;;;;;;;6.15;2.20;;;;;;;;;;5067887;28;20034;-66
2021/09/27 09:51:28;;;;;;;7.43;3.65;;;;;;;;;;5065689;28;20536;-65
2021/09/27 09:54:19;;;;;;;7.63;2.75;;;;;;;;;;5061568;28;20389;-66
2021/09/27 09:56:47;;;;;;;9.95;3.75;;;;;;;;;;5070194;28;20028;-65
2021/09/27 09:59:17;;;;;;;3.35;2.00;;;;;;;;;;5071971;28;20044;-66
2021/09/27 10:01:42;;;;;;;12.75;3.08;;;;;;;;;;5072195;28;20072;-67
2021/09/27 10:04:13;;;;;;;7.25;2.55;;;;;;;;;;5071446;28;20473;-67
2021/09/27 10:06:45;;;;;;;6.32;2.15;;;;;;;;;;5070429;28;20078;-67
2021/09/27 10:09:25;;;;;;;5.63;2.92;;;;;;;;;;5072035;28;20469;-65
2021/09/27 10:11:52;;;;;;;6.55;3.20;;;;;;;;;;5071858;28;20028;-67
2021/09/27 10:14:31;;;;;;;6.32;3.05;;;;;;;;;;5065821;28;20381;-67
2021/09/27 10:16:56;;;;;;;13.38;4.00;;;;;;;;;;5060142;28;20036;-67
2021/09/27 10:19:24;;;;;;;9.23;2.60;;;;;;;;;;5072190;28;20016;-67
2021/09/27 10:21:58;;;;;;;3.65;2.17;;;;;;;;;;5070689;28;20062;-65
2021/09/27 10:24:30;;;;;;;5.45;1.92;;;;;;;;;;5072120;28;20550;-67
2021/09/27 10:26:57;;;;;;;4.30;1.85;;;;;;;;;;5072548;28;20048;-67
2021/09/27 10:29:26;;;;;;;8.30;3.70;;;;;;;;;;5071157;28;20074;-66
2021/09/27 10:31:56;;;;;;;13.38;3.42;;;;;;;;;;5054385;28;20021;-67
2021/09/27 10:34:22;;;;;;;7.80;3.08;;;;;;;;;;5071475;28;20111;-66
2021/09/27 10:36:51;;;;;;;4.75;2.83;;;;;;;;;;5069894;28;20039;-67
2021/09/27 10:39:17;;;;;;;5.50;2.83;;;;;;;;;;5071044;28;20475;-67
2021/09/27 10:41:49;;;;;;;29.65;4.38;;;;;;;;;;5071582;28;20029;-66
2021/09/27 10:44:15;;;;;;;10.43;3.75;;;;;;;;;;5071469;28;20067;-66
2021/09/27 10:46:44;;;;;;;5.10;3.22;;;;;;;;;;5070939;28;20366;-67
2021/09/27 10:49:15;;;;;;;5.97;2.80;;;;;;;;;;5071657;28;20452;-67
2021/09/27 10:51:40;;;;;;;5.40;2.95;;;;;;;;;;5071687;28;20071;-66
2021/09/27 10:54:22;;;;;;;11.40;3.33;;;;;;;;;;5070491;28;20630;-66
2021/09/27 10:56:49;;;;;;;7.30;3.40;;;;;;;;;;5069423;28;20029;-67
2021/09/27 10:59:25;;;;;;;9.13;2.60;;;;;;;;;;5067923;28;20077;-67
2021/09/27 11:01:56;;;;;;;7.80;3.00;;;;;;;;;;5069959;28;20021;-66
2021/09/27 11:04:22;;;;;;;9.27;2.50;;;;;;;;;;5070914;28;20385;-66
2021/09/27 11:06:51;;;;;;;3.67;1.52;;;;;;;;;;5067762;28;20025;-65
2021/09/27 11:09:26;;;;;;;10.65;1.92;;;;;;;;;;5070646;28;20028;-66
2021/09/27 11:11:58;;;;;;;4.18;1.98;;;;;;;;;;5070961;28;20096;-66
2021/09/27 11:14:26;;;;;;;2.80;1.35;;;;;;;;;;5070400;28;20043;-66
2021/09/27 11:16:59;;;;;;;7.53;2.00;;;;;;;;;;5070616;28;20025;-66
2021/09/27 11:19:33;;;;;;;5.22;1.98;;;;;;;;;;5068034;28;20025;-66
2021/09/27 11:22:13;;;;;;;6.50;2.30;;;;;;;;;;5055905;28;20028;-66
2021/09/27 11:24:44;;;;;;;5.25;1.30;;;;;;;;;;5070851;28;20111;-67
2021/09/27 11:27:13;;;;;;;4.15;1.65;;;;;;;;;;5070017;28;20059;-64
2021/09/27 11:29:39;;;;;;;13.63;2.10;;;;;;;;;;5070429;28;20111;-66
2021/09/27 11:32:19;;;;;;;6.05;1.52;;;;;;;;;;5070162;28;20052;-65
2021/09/27 11:34:53;;;;;;;1.38;0.90;;;;;;;;;;5070407;28;20108;-67
2021/09/27 11:37:20;;;;;;;5.65;2.33;;;;;;;;;;5070313;28;20013;-66
2021/09/27 11:40:12;;;;;;;13.05;1.92;;;;;;;;;;5070043;28;20036;-66
2021/09/27 11:42:43;;;;;;;4.03;1.75;;;;;;;;;;5035735;28;20036;-67
2021/09/27 11:45:14;;;;;;;4.47;1.70;;;;;;;;;;5069248;28;20488;-65
2021/09/27 11:47:42;;;;;;;2.30;1.55;;;;;;;;;;5070161;28;20119;-65
2021/09/27 11:50:30;;;;;;;12.52;2.28;;;;;;;;;;5070047;28;20481;-66
2021/09/27 11:53:06;;;;;;;5.65;2.08;;;;;;;;;;5056816;28;20035;-67
2021/09/27 11:55:36;;;;;;;6.38;2.17;;;;;;;;;;5070230;28;20027;-67
2021/09/27 11:58:13;;;;;;;3.50;2.10;;;;;;;;;;5065654;28;20017;-66
2021/09/27 12:00:41;;;;;;;4.15;2.00;;;;;;;;;;5059793;28;20029;-65
2021/09/27 12:03:13;;;;;;;2.70;1.58;;;;;;;;;;5069402;28;20035;-66
2021/09/27 12:05:47;;;;;;;2.45;1.27;;;;;;;;;;5065825;28;20017;-67
2021/09/27 12:08:26;;;;;;;3.05;1.83;;;;;;;;;;5066484;28;20546;-66
2021/09/27 12:11:04;;;;;;;2.40;1.60;;;;;;;;;;5056472;28;20024;-66
2021/09/27 12:13:37;;;;;;;4.85;1.70;;;;;;;;;;5067362;28;20206;-66
2021/09/27 12:16:03;;;;;;;1.50;0.68;;;;;;;;;;5070319;28;20062;-64
2021/09/27 12:18:41;;;;;;;3.25;1.33;;;;;;;;;;5069111;28;20024;-64
2021/09/27 12:21:35;;;;;;;2.95;2.35;;;;;;;;;;5065806;28;20079;-65
2021/09/27 12:24:09;;;;;;;5.28;2.10;;;;;;;;;;5049229;28;20119;-64
2021/09/27 12:26:40;;;;;;;6.38;1.77;;;;;;;;;;5068898;28;20405;-64
2021/09/27 12:29:08;;;;;;;3.33;2.28;;;;;;;;;;5065381;28;20044;-65
2021/09/27 12:31:33;;;;;;;5.68;2.20;;;;;;;;;;5055825;28;20138;-65
2021/09/27 12:34:13;;;;;;;7.25;2.03;;;;;;;;;;5069762;28;20091;-65
2021/09/27 12:36:38;;;;;;;5.32;1.48;;;;;;;;;;5069183;28;20025;-66
2021/09/27 12:39:04;;;;;;;7.43;2.60;;;;;;;;;;5068065;28;20035;-64
2021/09/27 12:41:31;;;;;;;6.03;2.50;;;;;;;;;;5072789;28;20016;-64
2021/09/27 12:44:14;;;;;;;4.35;2.15;;;;;;;;;;5073632;28;20392;-65
2021/09/27 12:46:42;;;;;;;1.98;1.30;;;;;;;;;;5070447;28;20024;-66
2021/09/27 12:49:09;;;;;;;4.53;1.75;;;;;;;;;;5073945;28;20369;-66
2021/09/27 12:51:37;;;;;;;2.10;1.13;;;;;;;;;;5071329;28;20408;-66
2021/09/27 12:54:08;;;;;;;3.63;2.22;;;;;;;;;;5068927;28;20078;-65
2021/09/27 12:56:34;;;;;;;3.45;1.52;;;;;;;;;;5068036;28;20099;-65
2021/09/27 12:59:01;;;;;;;15.82;2.17;;;;;;;;;;5072402;28;20099;-66
2021/09/27 13:01:28;;;;;;;5.05;2.40;;;;;;;;;;5062085;28;20020;-65
2021/09/27 13:04:06;;;;;;;3.97;2.10;;;;;;;;;;5072978;28;20016;-66
2021/09/27 13:06:36;;;;;;;3.17;2.03;;;;;;;;;;5071537;28;20028;-65
2021/09/27 13:09:04;;;;;;;3.27;2.30;;;;;;;;;;5072301;28;20115;-66
2021/09/27 13:11:29;;;;;;;3.53;1.83;;;;;;;;;;5072741;28;20044;-65
2021/09/27 13:13:59;;;;;;;2.50;1.37;;;;;;;;;;5072696;28;20270;-66
2021/09/27 13:16:27;;;;;;;3.38;1.33;;;;;;;;;;5053716;28;20025;-66
2021/09/27 13:18:52;;;;;;;3.78;1.70;;;;;;;;;;5070053;28;20099;-66
2021/09/27 13:21:20;;;;;;;8.35;1.80;;;;;;;;;;5073207;28;20103;-66
2021/09/27 13:23:54;;;;;;;2.53;0.88;;;;;;;;;;5073208;28;20535;-66
2021/09/27 13:26:25;;;;;;;3.97;1.67;;;;;;;;;;5072531;28;20379;-66
2021/09/27 13:28:55;;;;;;;3.90;2.05;;;;;;;;;;5071383;28;20032;-67
2021/09/27 13:31:25;;;;;;;4.40;1.20;;;;;;;;;;5073159;28;20024;-66
2021/09/27 13:33:55;;;;;;;4.95;1.98;;;;;;;;;;5072761;28;20469;-67
2021/09/27 13:36:38;;;;;;;4.30;1.92;;;;;;;;;;5072045;28;20456;-65
2021/09/27 13:39:21;;;;;;;11.27;4.32;;;;;;;;;;5056828;28;20028;-67
2021/09/27 13:41:53;;;;;;;4.07;2.40;;;;;;;;;;5072385;28;20036;-65
2021/09/27 13:44:30;;;;;;;3.58;2.08;;;;;;;;;;5064479;28;20043;-67
2021/09/27 13:46:55;;;;;;;3.97;2.00;;;;;;;;;;5068775;28;20029;-66
2021/09/27 13:49:20;;;;;;;5.00;1.38;;;;;;;;;;5072074;28;20032;-68
2021/09/27 13:51:46;;;;;;;4.68;1.35;;;;;;;;;;5072175;28;20029;-67
2021/09/27 13:54:14;;;;;;;3.42;2.28;;;;;;;;;;5072362;28;20047;-66
2021/09/27 13:56:40;;;;;;;8.85;2.08;;;;;;;;;;5070688;28;20385;-67
2021/09/27 13:59:06;;;;;;;2.28;1.30;;;;;;;;;;5071043;28;20025;-67
2021/09/27 14:01:32;;;;;;;3.97;1.55;;;;;;;;;;5071683;28;20029;-68
2021/09/27 14:03:57;;;;;;;1.80;1.10;;;;;;;;;;5072373;28;20027;-67
2021/09/27 14:06:23;;;;;;;3.33;2.20;;;;;;;;;;5070998;28;20266;-67
2021/09/27 14:08:49;;;;;;;7.47;2.65;;;;;;;;;;5071749;28;20278;-67
2021/09/27 14:11:14;;;;;;;6.90;2.47;;;;;;;;;;5072132;28;20017;-67
2021/09/27 14:13:41;;;;;;;6.32;2.35;;;;;;;;;;5070951;28;20074;-67
2021/09/27 14:16:08;;;;;;;2.05;1.40;;;;;;;;;;5071018;28;20103;-67
2021/09/27 14:18:34;;;;;;;6.05;1.88;;;;;;;;;;5071213;28;20427;-68
2021/09/27 14:20:59;;;;;;;3.00;1.50;;;;;;;;;;5071756;28;20021;-68
2021/09/27 14:23:26;;;;;;;6.45;1.92;;;;;;;;;;5071333;28;20069;-67
2021/09/27 14:25:51;;;;;;;4.53;2.08;;;;;;;;;;5070328;28;20013;-68
2021/09/27 14:28:18;;;;;;;3.67;2.42;;;;;;;;;;5071743;28;20035;-67
2021/09/27 14:30:43;;;;;;;10.20;2.70;;;;;;;;;;5071828;28;20062;-68
2021/09/27 14:33:08;;;;;;;3.20;2.00;;;;;;;;;;5071080;28;20448;-67
2021/09/27 14:35:36;;;;;;;2.15;1.63;;;;;;;;;;5071110;28;20025;-68
2021/09/27 14:38:01;;;;;;;3.95;2.30;;;;;;;;;;5071864;28;20032;-68
2021/09/27 14:40:26;;;;;;;7.63;3.30;;;;;;;;;;5071549;28;20033;-68
2021/09/27 14:42:52;;;;;;;5.00;2.85;;;;;;;;;;5061113;28;20029;-65
2021/09/27 14:45:18;;;;;;;2.75;1.90;;;;;;;;;;5071150;28;20027;-67
2021/09/27 14:47:44;;;;;;;2.60;1.40;;;;;;;;;;5070641;28;20067;-66
2021/09/27 14:50:11;;;;;;;9.95;2.25;;;;;;;;;;5071532;28;20503;-66
2021/09/27 14:52:36;;;;;;;4.93;2.50;;;;;;;;;;5070123;28;20186;-65
2021/09/27 14:55:02;;;;;;;7.00;2.88;;;;;;;;;;5071567;28;20509;-65